createdAt,value
2019-05-10T00:01:45.134Z,3.70
2019-05-10T00:04:18.059Z,2.57
2019-05-10T00:06:51.142Z,3.00
2019-05-10T00:09:18.185Z,3.80
2019-05-10T00:12:00.079Z,5.23
2019-05-10T00:14:31.135Z,3.00
2019-05-10T00:16:58.397Z,4.23
2019-05-10T00:19:26.394Z,3.90
2019-05-10T00:21:53.897Z,4.17
2019-05-10T00:24:20.912Z,4.30
2019-05-10T00:26:48.026Z,6.17
2019-05-10T00:29:18.149Z,2.70
2019-05-10T00:31:46.730Z,2.90
2019-05-10T00:34:14.543Z,2.97
2019-05-10T00:36:42.235Z,4.07
2019-05-10T00:39:10.046Z,4.63
2019-05-10T00:41:37.022Z,4.13
2019-05-10T00:44:03.864Z,3.87
2019-05-10T00:46:31.490Z,3.10
2019-05-10T00:48:58.609Z,3.30
2019-05-10T00:51:25.454Z,3.43
2019-05-10T00:53:52.317Z,5.90
2019-05-10T00:56:19.831Z,3.67
2019-05-10T00:58:46.864Z,3.27
2019-05-10T01:01:13.777Z,4.43
2019-05-10T01:03:41.526Z,3.63
2019-05-10T01:06:08.463Z,3.27
2019-05-10T01:08:36.406Z,3.63
2019-05-10T01:11:04.112Z,3.70
2019-05-10T01:13:31.497Z,4.13
2019-05-10T01:15:59.001Z,4.33
2019-05-10T01:18:26.170Z,3.60
2019-05-10T01:20:53.719Z,3.73
2019-05-10T01:23:21.280Z,4.30
2019-05-10T01:25:48.215Z,4.23
2019-05-10T01:28:15.062Z,4.67
2019-05-10T01:30:41.813Z,3.70
2019-05-10T01:33:08.597Z,3.70
2019-05-10T01:35:35.334Z,2.70
2019-05-10T01:38:02.455Z,3.00
2019-05-10T01:43:09.390Z,4.30
2019-05-10T01:45:36.147Z,3.80
2019-05-10T01:48:02.894Z,3.73
2019-05-10T01:50:29.739Z,4.20
2019-05-10T01:52:56.480Z,4.43
2019-05-10T01:55:23.205Z,2.93
2019-05-10T01:57:50.011Z,2.80
2019-05-10T02:00:16.760Z,3.07
2019-05-10T02:02:44.266Z,3.83
2019-05-10T02:05:11.182Z,3.40
2019-05-10T02:07:38.678Z,3.30
2019-05-10T02:10:05.536Z,2.87
2019-05-10T02:12:32.398Z,3.00
2019-05-10T02:14:59.274Z,3.20
2019-05-10T02:17:26.716Z,3.53
2019-05-10T02:19:54.256Z,2.87
2019-05-10T02:22:21.120Z,2.67
2019-05-10T02:24:47.900Z,2.80
2019-05-10T02:27:15.406Z,2.80
2019-05-10T02:29:43.025Z,5.00
2019-05-10T02:32:09.803Z,4.53
2019-05-10T02:34:36.614Z,3.30
2019-05-10T02:37:03.390Z,2.83
2019-05-10T02:39:30.139Z,2.80
2019-05-10T02:41:56.934Z,3.43
2019-05-10T02:44:23.695Z,3.30
2019-05-10T02:46:50.530Z,4.67
2019-05-10T02:49:17.263Z,4.53
2019-05-10T02:51:43.982Z,3.30
2019-05-10T02:54:11.810Z,3.17
2019-05-10T02:56:38.609Z,5.63
2019-05-10T02:59:05.371Z,3.50
2019-05-10T03:01:32.241Z,3.17
2019-05-10T03:03:59.744Z,4.80
2019-05-10T03:06:26.511Z,4.00
2019-05-10T03:08:54.093Z,3.80
2019-05-10T03:11:20.910Z,5.23
2019-05-10T03:13:47.751Z,3.47
2019-05-10T03:16:14.592Z,7.17
2019-05-10T03:18:41.420Z,3.50
2019-05-10T03:21:08.289Z,3.33
2019-05-10T03:23:35.121Z,4.20
2019-05-10T03:26:01.967Z,4.43
2019-05-10T03:28:28.806Z,3.37
2019-05-10T03:30:55.649Z,2.90
2019-05-10T03:33:22.510Z,6.70
2019-05-10T03:35:49.435Z,3.73
2019-05-10T03:38:16.177Z,4.00
2019-05-10T03:40:43.023Z,4.03
2019-05-10T03:43:09.865Z,3.13
2019-05-10T03:45:36.603Z,3.53
2019-05-10T03:48:03.557Z,3.40
2019-05-10T03:50:30.495Z,4.13
2019-05-10T03:52:57.337Z,3.07
2019-05-10T03:55:24.179Z,3.07
2019-05-10T03:57:51.021Z,3.30
2019-05-10T04:00:17.863Z,4.17
2019-05-10T04:02:44.705Z,4.43
2019-05-10T04:05:11.549Z,3.27
2019-05-10T04:07:38.392Z,4.00
2019-05-10T04:10:05.234Z,2.67
2019-05-10T04:12:31.977Z,3.87
2019-05-10T04:14:58.924Z,2.67
2019-05-10T04:17:25.767Z,2.90
2019-05-10T04:19:52.608Z,3.40
2019-05-10T04:22:19.448Z,3.10
2019-05-10T04:24:46.294Z,4.23
2019-05-10T04:27:30.731Z,4.70
2019-05-10T04:29:40.103Z,3.30
2019-05-10T04:32:07.127Z,2.40
2019-05-10T04:34:33.874Z,4.87
2019-05-10T04:37:00.708Z,3.77
2019-05-10T04:39:28.272Z,3.07
2019-05-10T04:41:55.020Z,4.83
2019-05-10T04:44:21.981Z,3.57
2019-05-10T04:46:48.803Z,3.03
2019-05-10T04:49:15.744Z,3.77
2019-05-10T04:51:42.485Z,4.73
2019-05-10T04:54:09.329Z,3.97
2019-05-10T04:56:36.889Z,4.90
2019-05-10T04:59:03.728Z,3.70
2019-05-10T05:01:30.475Z,20.97
2019-05-10T05:03:57.209Z,4.17
2019-05-10T05:06:24.057Z,3.90
2019-05-10T05:08:50.792Z,2.93
2019-05-10T05:11:17.738Z,2.40
2019-05-10T05:13:44.582Z,3.70
2019-05-10T05:16:11.325Z,3.00
2019-05-10T05:18:38.267Z,2.80
2019-05-10T05:21:05.111Z,3.03
2019-05-10T05:23:31.861Z,4.77
2019-05-10T05:25:59.519Z,2.57
2019-05-10T05:28:26.356Z,2.67
2019-05-10T05:30:53.194Z,2.87
2019-05-10T05:33:19.943Z,2.63
2019-05-10T05:35:46.680Z,3.27
2019-05-10T05:38:13.523Z,2.57
2019-05-10T05:40:40.570Z,4.00
2019-05-10T05:43:08.721Z,3.33
2019-05-10T05:45:36.080Z,2.73
2019-05-10T05:48:03.865Z,2.83
2019-05-10T05:50:30.605Z,2.80
2019-05-10T05:52:57.548Z,4.60
2019-05-10T05:55:30.577Z,3.97
2019-05-10T05:57:53.966Z,3.27
2019-05-10T06:00:23.608Z,2.50
2019-05-10T06:02:51.023Z,2.80
2019-05-10T06:05:32.908Z,2.37
2019-05-10T06:07:44.653Z,2.83
2019-05-10T06:10:17.034Z,4.03
2019-05-10T06:12:38.332Z,2.37
2019-05-10T06:15:05.165Z,2.78
2019-05-10T06:17:32.018Z,2.53
2019-05-10T06:20:00.860Z,2.40
2019-05-10T06:22:25.775Z,2.42
2019-05-10T06:24:53.895Z,2.40
2019-05-10T06:27:19.494Z,2.28
2019-05-10T06:29:46.334Z,4.15
2019-05-10T06:32:13.365Z,2.25
2019-05-10T06:34:40.252Z,2.65
2019-05-10T06:37:06.979Z,2.10
2019-05-10T06:39:33.910Z,2.92
2019-05-10T06:42:00.651Z,5.57
2019-05-10T06:44:31.129Z,2.30
2019-05-10T06:47:11.333Z,2.42
2019-05-10T06:49:40.857Z,3.45
2019-05-10T06:52:02.972Z,5.12
2019-05-10T06:54:29.818Z,2.20
2019-05-10T06:56:56.556Z,2.67
2019-05-10T06:59:24.907Z,2.83
2019-05-10T07:01:52.031Z,2.40
2019-05-10T07:04:16.989Z,4.65
2019-05-10T07:06:43.931Z,2.97
2019-05-10T07:09:10.873Z,4.75
2019-05-10T07:11:37.717Z,2.40
2019-05-10T07:14:04.663Z,3.10
2019-05-10T07:16:31.402Z,2.00
2019-05-10T07:19:00.629Z,2.42
2019-05-10T07:21:25.396Z,3.75
2019-05-10T07:23:52.346Z,2.90
2019-05-10T07:26:24.339Z,2.40
2019-05-10T07:28:46.228Z,2.20
2019-05-10T07:31:13.072Z,2.30
2019-05-10T07:33:40.208Z,2.25
2019-05-10T07:36:14.503Z,2.15
2019-05-10T07:38:34.009Z,2.33
2019-05-10T07:41:01.570Z,1.95
2019-05-10T07:43:28.953Z,2.12
2019-05-10T07:45:58.680Z,2.58
2019-05-10T07:48:23.271Z,3.42
2019-05-10T07:50:51.973Z,2.30
2019-05-10T07:53:23.111Z,2.00
2019-05-10T07:55:45.497Z,3.25
2019-05-10T07:58:12.334Z,2.20
2019-05-10T08:00:44.636Z,4.07
2019-05-10T08:03:15.185Z,2.40
2019-05-10T08:05:33.073Z,2.60
2019-05-10T08:07:59.913Z,2.12
2019-05-10T08:10:39.116Z,2.17
2019-05-10T08:13:08.470Z,2.25
2019-05-10T08:15:34.899Z,2.37
2019-05-10T08:18:01.133Z,3.53
2019-05-10T08:20:41.467Z,2.15
2019-05-10T08:22:54.794Z,6.62
2019-05-10T08:25:23.016Z,3.20
2019-05-10T08:27:51.204Z,2.35
2019-05-10T08:30:25.674Z,3.67
2019-05-10T08:32:42.683Z,3.30
2019-05-10T08:35:16.362Z,2.47
2019-05-10T08:37:38.042Z,2.67
2019-05-10T08:40:03.358Z,2.22
2019-05-10T08:42:43.875Z,2.28
2019-05-10T08:45:03.731Z,2.42
2019-05-10T08:47:27.654Z,2.55
2019-05-10T08:50:08.132Z,2.05
2019-05-10T08:52:27.295Z,4.12
2019-05-10T08:54:46.620Z,2.85
2019-05-10T08:57:18.535Z,2.67
2019-05-10T08:59:42.632Z,3.35
2019-05-10T09:02:07.354Z,2.67
2019-05-10T09:04:45.351Z,2.08
2019-05-10T09:07:02.860Z,1.80
2019-05-10T09:09:33.749Z,2.20
2019-05-10T09:11:57.736Z,3.33
2019-05-10T09:14:24.136Z,3.15
2019-05-10T09:16:57.541Z,2.70
2019-05-10T09:19:18.823Z,2.17
2019-05-10T09:21:49.623Z,2.22
2019-05-10T09:24:12.831Z,2.60
2019-05-10T09:26:38.134Z,2.65
2019-05-10T09:29:04.979Z,3.35
2019-05-10T09:31:32.646Z,3.35
2019-05-10T09:33:58.694Z,1.60
2019-05-10T09:36:31.223Z,2.10
2019-05-10T09:38:52.896Z,3.60
2019-05-10T09:41:19.293Z,2.20
2019-05-10T09:43:48.972Z,2.70
2019-05-10T09:46:14.196Z,4.85
2019-05-10T09:48:44.666Z,1.98
2019-05-10T09:51:08.512Z,3.00
2019-05-10T09:53:38.025Z,3.60
2019-05-10T09:56:03.089Z,2.45
2019-05-10T09:58:29.039Z,3.97
2019-05-10T10:01:12.824Z,2.42
2019-05-10T10:03:22.828Z,1.75
2019-05-10T10:05:54.976Z,1.75
2019-05-10T10:08:17.619Z,2.62
2019-05-10T10:10:43.561Z,1.80
2019-05-10T10:13:13.457Z,5.05
2019-05-10T10:15:37.440Z,2.05
2019-05-10T10:18:04.303Z,3.85
2019-05-10T10:20:36.007Z,2.50
2019-05-10T10:22:58.184Z,1.95
2019-05-10T10:25:27.790Z,3.80
2019-05-10T10:27:51.870Z,2.05
2019-05-10T10:30:21.578Z,2.15
2019-05-10T10:32:47.367Z,3.42
2019-05-10T10:35:13.320Z,2.85
2019-05-10T10:37:39.446Z,4.03
2019-05-10T10:40:08.730Z,2.42
2019-05-10T10:42:33.129Z,3.58
2019-05-10T10:44:59.980Z,2.58
2019-05-10T10:47:30.447Z,1.80
2019-05-10T10:49:53.658Z,3.20
2019-05-10T10:52:20.416Z,2.73
2019-05-10T10:54:47.924Z,3.13
2019-05-10T10:57:14.190Z,2.20
2019-05-10T10:59:41.030Z,1.90
2019-05-10T11:02:28.993Z,2.03
2019-05-10T11:04:40.236Z,2.83
2019-05-10T11:07:10.553Z,2.13
2019-05-10T11:09:31.001Z,4.60
2019-05-10T11:11:55.451Z,4.33
2019-05-10T11:14:22.189Z,5.00
2019-05-10T11:16:52.841Z,3.73
2019-05-10T11:19:15.957Z,2.10
2019-05-10T11:21:42.823Z,2.30
2019-05-10T11:24:17.729Z,2.00
2019-05-10T11:26:37.094Z,3.03
2019-05-10T11:29:03.658Z,3.40
2019-05-10T11:31:31.151Z,3.53
2019-05-10T11:33:59.215Z,2.53
2019-05-10T11:36:24.197Z,4.40
2019-05-10T11:38:53.612Z,4.67
2019-05-10T11:41:22.119Z,3.00
2019-05-10T11:43:44.817Z,2.80
2019-05-10T11:46:12.376Z,2.50
2019-05-10T11:48:41.890Z,3.93
2019-05-10T11:51:11.276Z,2.50
2019-05-10T11:53:32.801Z,3.93
2019-05-10T11:56:01.864Z,2.67
2019-05-10T11:58:26.486Z,6.33
2019-05-10T12:00:59.288Z,2.00
2019-05-10T12:03:23.454Z,4.03
2019-05-10T12:05:53.235Z,3.10
2019-05-10T12:08:14.677Z,2.90
2019-05-10T12:10:52.805Z,4.60
2019-05-10T12:13:19.125Z,3.08
2019-05-10T12:15:36.742Z,2.00
2019-05-10T12:18:04.730Z,2.80
2019-05-10T12:20:41.158Z,2.17
2019-05-10T12:22:57.270Z,2.30
2019-05-10T12:25:42.080Z,2.55
2019-05-10T12:27:52.421Z,3.30
2019-05-10T12:30:17.902Z,3.05
2019-05-10T12:32:55.634Z,1.90
2019-05-10T12:35:11.793Z,3.53
2019-05-10T12:37:39.460Z,3.65
2019-05-10T12:40:10.076Z,3.05
2019-05-10T12:42:32.321Z,2.67
2019-05-10T12:45:01.155Z,2.60
2019-05-10T12:47:26.110Z,2.47
2019-05-10T12:49:53.902Z,3.03
2019-05-10T12:52:22.078Z,2.60
2019-05-10T12:54:46.535Z,2.67
2019-05-10T12:57:13.383Z,2.77
2019-05-10T12:59:40.222Z,4.77
2019-05-10T13:02:11.014Z,5.07
2019-05-10T13:04:40.483Z,3.33
2019-05-10T13:07:00.854Z,4.90
2019-05-10T13:09:37.741Z,3.13
2019-05-10T13:12:03.876Z,2.67
2019-05-10T13:14:31.624Z,3.00
2019-05-10T13:16:58.364Z,3.93
2019-05-10T13:19:25.205Z,2.53
2019-05-10T13:21:53.829Z,4.37
2019-05-10T13:24:18.894Z,4.33
2019-05-10T13:26:45.840Z,3.10
2019-05-10T13:29:12.798Z,3.37
2019-05-10T13:31:42.616Z,4.33
2019-05-10T13:34:07.285Z,3.93
2019-05-10T13:36:36.980Z,2.77
2019-05-10T13:39:00.987Z,2.73
2019-05-10T13:41:27.920Z,4.67
2019-05-10T13:43:58.858Z,2.70
2019-05-10T13:46:21.557Z,2.23
2019-05-10T13:48:49.894Z,3.50
2019-05-10T13:51:17.747Z,3.20
2019-05-10T13:53:44.897Z,2.83
2019-05-10T13:56:14.148Z,2.60
2019-05-10T13:58:41.186Z,2.53
2019-05-10T14:01:13.031Z,2.50
2019-05-10T14:03:43.658Z,3.27
2019-05-10T14:06:02.269Z,2.90
2019-05-10T14:08:29.231Z,2.83
2019-05-10T14:11:01.523Z,3.23
2019-05-10T14:13:23.020Z,2.80
2019-05-10T14:15:50.478Z,3.20
2019-05-10T14:18:17.204Z,4.03
2019-05-10T14:20:44.265Z,2.97
2019-05-10T14:23:11.026Z,3.10
2019-05-10T14:25:38.992Z,3.33
2019-05-10T14:28:09.763Z,3.60
2019-05-10T14:30:32.252Z,3.20
2019-05-10T14:32:59.099Z,3.43
2019-05-10T14:35:25.936Z,3.97
2019-05-10T14:37:52.675Z,3.63
2019-05-10T14:40:27.763Z,3.00
2019-05-10T14:42:46.567Z,2.20
2019-05-10T14:45:13.512Z,2.90
2019-05-10T14:47:48.448Z,2.73
2019-05-10T14:50:08.320Z,3.53
2019-05-10T14:52:35.064Z,2.50
2019-05-10T14:55:02.124Z,2.50
2019-05-10T14:57:28.959Z,3.70
2019-05-10T14:59:55.798Z,2.43
2019-05-10T15:02:24.922Z,4.03
2019-05-10T15:04:49.789Z,2.77
2019-05-10T15:07:16.756Z,3.97
2019-05-10T15:09:43.581Z,3.07
2019-05-10T15:12:15.482Z,4.17
2019-05-10T15:14:37.497Z,2.23
2019-05-10T15:17:04.311Z,2.50
2019-05-10T15:19:31.697Z,2.50
2019-05-10T15:21:57.895Z,2.77
2019-05-10T15:24:24.944Z,4.20
2019-05-10T15:26:51.787Z,2.90
2019-05-10T15:29:22.372Z,2.43
2019-05-10T15:31:45.674Z,2.87
2019-05-10T15:34:12.418Z,4.20
2019-05-10T15:36:40.179Z,3.77
2019-05-10T15:39:07.128Z,3.03
2019-05-10T15:41:33.969Z,7.33
2019-05-10T15:44:00.814Z,2.57
2019-05-10T15:46:35.298Z,2.37
2019-05-10T15:48:54.394Z,2.60
2019-05-10T15:51:35.218Z,3.33
2019-05-10T15:53:48.907Z,5.17
2019-05-10T15:56:15.950Z,2.47
2019-05-10T15:58:42.889Z,2.40
2019-05-10T16:01:09.633Z,2.27
2019-05-10T16:03:36.580Z,2.77
2019-05-10T16:06:04.859Z,2.67
2019-05-10T16:08:32.045Z,3.27
2019-05-10T16:10:58.750Z,2.60
2019-05-10T16:13:25.598Z,3.17
2019-05-10T16:15:57.710Z,4.37
2019-05-10T16:18:19.274Z,3.33
2019-05-10T16:20:46.645Z,7.60
2019-05-10T16:23:14.190Z,2.53
2019-05-10T16:25:47.558Z,4.83
2019-05-10T16:28:07.874Z,4.73
2019-05-10T16:30:36.579Z,3.30
2019-05-10T16:33:01.666Z,2.43
2019-05-10T16:35:38.484Z,2.73
2019-05-10T16:37:55.555Z,3.00
2019-05-10T16:40:22.503Z,2.53
2019-05-10T16:42:49.651Z,4.97
2019-05-10T16:45:16.494Z,4.63
2019-05-10T16:47:43.438Z,3.07
2019-05-10T16:50:10.486Z,5.83
2019-05-10T16:52:37.533Z,4.83
2019-05-10T16:55:05.421Z,2.93
2019-05-10T16:57:37.335Z,3.70
2019-05-10T17:00:02.172Z,3.73
2019-05-10T17:02:25.520Z,3.30
2019-05-10T17:04:52.260Z,2.87
2019-05-10T17:07:20.611Z,2.50
2019-05-10T17:09:49.556Z,2.90
2019-05-10T17:12:12.831Z,3.37
2019-05-10T17:14:39.731Z,4.13
2019-05-10T17:17:06.574Z,3.43
2019-05-10T17:19:34.028Z,3.07
2019-05-10T17:22:00.261Z,3.07
2019-05-10T17:24:27.005Z,3.63
2019-05-10T17:26:53.788Z,4.37
2019-05-10T17:29:21.302Z,3.27
2019-05-10T17:31:48.247Z,3.00
2019-05-10T17:34:22.128Z,3.17
2019-05-10T17:36:41.983Z,2.57
2019-05-10T17:39:09.423Z,2.70
2019-05-10T17:41:36.934Z,3.73
2019-05-10T17:44:03.784Z,3.07
2019-05-10T17:46:30.532Z,2.97
2019-05-10T17:48:57.235Z,2.60
2019-05-10T17:51:24.704Z,2.93
2019-05-10T17:53:54.927Z,3.10
2019-05-10T17:56:18.325Z,2.50
2019-05-10T17:58:45.779Z,2.67
2019-05-10T18:01:12.499Z,2.93
2019-05-10T18:03:39.258Z,3.50
2019-05-10T18:06:06.132Z,4.23
2019-05-10T18:08:33.746Z,3.73
2019-05-10T18:11:04.352Z,3.03
2019-05-10T18:13:30.627Z,3.03
2019-05-10T18:15:57.395Z,4.03
2019-05-10T18:18:24.588Z,2.93
2019-05-10T18:20:51.483Z,3.40
2019-05-10T18:23:21.052Z,4.40
2019-05-10T18:25:46.219Z,2.80
2019-05-10T18:28:16.590Z,4.50
2019-05-10T18:30:41.755Z,2.67
2019-05-10T18:33:12.249Z,5.83
2019-05-10T18:35:35.838Z,3.00
2019-05-10T18:38:03.868Z,3.57
2019-05-10T18:40:32.180Z,3.00
2019-05-10T18:43:03.656Z,2.90
2019-05-10T18:45:28.563Z,2.90
2019-05-10T18:47:52.107Z,3.40
2019-05-10T18:50:19.039Z,2.90
2019-05-10T18:52:46.742Z,3.23
2019-05-10T18:55:13.701Z,2.50
2019-05-10T18:57:45.413Z,3.60
2019-05-10T19:00:08.735Z,2.60
2019-05-10T19:02:35.772Z,2.93
2019-05-10T19:05:02.923Z,2.70
2019-05-10T19:07:30.786Z,3.43
2019-05-10T19:09:58.961Z,3.57
2019-05-10T19:12:26.294Z,2.73
2019-05-10T19:14:53.269Z,4.33
2019-05-10T19:17:20.410Z,3.70
2019-05-10T19:19:47.358Z,3.50
2019-05-10T19:22:15.225Z,3.03
2019-05-10T19:24:42.262Z,3.13
2019-05-10T19:27:10.240Z,3.63
2019-05-10T19:29:38.638Z,3.60
2019-05-10T19:32:04.051Z,3.57
2019-05-10T19:34:30.967Z,3.60
2019-05-10T19:36:58.247Z,3.13
2019-05-10T19:39:25.855Z,2.90
2019-05-10T19:42:02.922Z,2.73
2019-05-10T19:44:19.593Z,3.60
2019-05-10T19:46:46.501Z,3.10
2019-05-10T19:49:15.595Z,2.83
2019-05-10T19:51:42.017Z,5.53
2019-05-10T19:54:08.480Z,3.23
2019-05-10T19:56:37.096Z,3.40
2019-05-10T19:59:05.396Z,4.17
2019-05-10T20:01:29.931Z,3.10
2019-05-10T20:03:58.311Z,3.97
2019-05-10T20:06:26.708Z,3.40
2019-05-10T20:08:54.045Z,3.40
2019-05-10T20:11:20.887Z,3.00
2019-05-10T20:13:48.450Z,3.30
2019-05-10T20:16:15.595Z,2.90
2019-05-10T20:18:42.546Z,3.00
2019-05-10T20:21:09.589Z,3.23
2019-05-10T20:23:36.844Z,3.53
2019-05-10T20:26:04.300Z,3.50
2019-05-10T20:28:32.579Z,3.60
2019-05-10T20:31:00.549Z,3.40
2019-05-10T20:33:27.398Z,3.57
2019-05-10T20:35:54.135Z,3.63
2019-05-10T20:38:20.971Z,3.67
2019-05-10T20:40:47.712Z,3.50
2019-05-10T20:43:14.660Z,3.67
2019-05-10T20:45:41.603Z,3.70
2019-05-10T20:48:08.461Z,4.37
2019-05-10T20:50:35.289Z,4.07
2019-05-10T20:53:02.027Z,4.07
2019-05-10T20:58:01.651Z,5.43
2019-05-10T21:00:28.530Z,3.77
2019-05-10T21:02:56.057Z,4.07
2019-05-10T21:05:22.897Z,3.70
2019-05-10T21:07:49.743Z,5.23
2019-05-10T21:10:17.312Z,3.63
2019-05-10T21:12:45.064Z,4.73
2019-05-10T21:15:12.626Z,5.47
2019-05-10T21:17:40.598Z,4.00
2019-05-10T21:20:07.951Z,3.40
2019-05-10T21:22:34.791Z,3.57
2019-05-10T21:25:02.150Z,3.57
2019-05-10T21:27:29.013Z,4.13
2019-05-10T21:29:57.063Z,4.33
2019-05-10T21:32:24.828Z,4.07
2019-05-10T21:34:51.772Z,4.10
2019-05-10T21:37:18.619Z,4.40
2019-05-10T21:39:45.458Z,3.97
2019-05-10T21:42:12.405Z,3.90
2019-05-10T21:44:39.249Z,4.43
2019-05-10T21:47:06.086Z,4.07
2019-05-10T21:49:32.828Z,3.80
2019-05-10T21:51:59.776Z,4.27
2019-05-10T21:54:26.720Z,4.40
2019-05-10T21:56:54.287Z,4.50
2019-05-10T21:59:22.048Z,4.40
2019-05-10T22:01:49.388Z,5.77
2019-05-10T22:04:16.137Z,4.97
2019-05-10T22:06:42.981Z,5.50
2019-05-10T22:09:09.941Z,5.17
2019-05-10T22:11:38.196Z,5.57
2019-05-10T22:14:05.575Z,5.73
2019-05-10T22:16:32.613Z,6.00
2019-05-10T22:19:14.298Z,5.47
2019-05-10T22:21:41.109Z,5.30
2019-05-10T22:24:07.911Z,6.20
2019-05-10T22:26:34.666Z,5.67
2019-05-10T22:29:01.418Z,6.27
2019-05-10T22:31:28.194Z,5.93
2019-05-10T22:33:55.814Z,6.27
2019-05-10T22:36:23.425Z,6.70
2019-05-10T22:39:05.969Z,6.77
2019-05-10T22:41:18.637Z,7.30
2019-05-10T22:43:45.732Z,8.40
2019-05-10T22:46:13.274Z,8.40
2019-05-10T22:48:40.035Z,6.40
2019-05-10T22:51:06.893Z,7.77
2019-05-10T22:53:33.685Z,6.83
2019-05-10T22:56:00.709Z,6.90
2019-05-10T22:58:27.540Z,6.80
2019-05-10T23:00:55.516Z,8.43
2019-05-10T23:03:24.614Z,11.60
2019-05-10T23:05:49.495Z,12.13
2019-05-10T23:08:16.409Z,12.57
2019-05-10T23:10:44.452Z,9.10
2019-05-10T23:13:13.035Z,9.90
2019-05-10T23:15:40.885Z,7.57
2019-05-10T23:18:08.668Z,10.03
2019-05-10T23:20:37.862Z,8.73
2019-05-10T23:23:08.138Z,8.67
2019-05-10T23:25:35.231Z,10.20
2019-05-10T23:28:01.985Z,9.53
2019-05-10T23:30:28.835Z,8.97
2019-05-10T23:32:56.433Z,9.57
2019-05-10T23:35:24.583Z,10.20
2019-05-10T23:37:52.713Z,10.40
2019-05-10T23:40:19.452Z,11.83
2019-05-10T23:42:46.266Z,9.13
2019-05-10T23:45:13.323Z,14.27
2019-05-10T23:47:40.188Z,18.97
2019-05-10T23:50:07.097Z,16.67
2019-05-10T23:52:33.892Z,10.43
2019-05-10T23:55:00.639Z,8.70
2019-05-10T23:57:28.188Z,10.07
2019-05-10T23:59:55.102Z,8.87
